createdAt,value
2017-12-29T00:00:40.107Z,73.30
2017-12-29T00:03:07.610Z,73.00
2017-12-29T00:05:35.463Z,72.80
2017-12-29T00:08:02.914Z,72.80
2017-12-29T00:10:30.492Z,72.70
2017-12-29T00:12:57.916Z,72.50
2017-12-29T00:15:25.338Z,72.60
2017-12-29T00:17:53.176Z,72.70
2017-12-29T00:20:20.682Z,72.70
2017-12-29T00:22:48.515Z,72.60
2017-12-29T00:25:15.976Z,72.60
2017-12-29T00:27:43.520Z,72.40
2017-12-29T00:30:10.969Z,72.40
2017-12-29T00:32:38.430Z,72.50
2017-12-29T00:35:05.892Z,72.40
2017-12-29T00:37:33.367Z,72.20
2017-12-29T00:40:00.876Z,72.30
2017-12-29T00:42:28.804Z,72.20
2017-12-29T00:44:56.279Z,72.20
2017-12-29T00:47:23.706Z,72.00
2017-12-29T00:49:51.188Z,72.00
2017-12-29T00:52:18.680Z,72.00
2017-12-29T00:54:46.140Z,71.90
2017-12-29T00:57:13.595Z,71.60
2017-12-29T00:59:41.027Z,71.80
2017-12-29T01:02:09.352Z,71.80
2017-12-29T01:04:37.197Z,71.90
2017-12-29T01:07:04.786Z,71.90
2017-12-29T01:09:32.270Z,72.10
2017-12-29T01:12:00.117Z,71.90
2017-12-29T01:14:27.572Z,71.90
2017-12-29T01:16:54.988Z,71.80
2017-12-29T01:19:22.445Z,71.70
2017-12-29T01:21:49.893Z,71.70
2017-12-29T01:24:17.825Z,72.10
2017-12-29T01:26:45.384Z,72.10
2017-12-29T01:29:12.859Z,72.00
2017-12-29T01:31:40.842Z,72.10
2017-12-29T01:34:08.762Z,72.10
2017-12-29T01:36:37.002Z,72.10
2017-12-29T01:39:04.908Z,72.10
2017-12-29T01:41:32.378Z,72.10
2017-12-29T01:43:59.848Z,72.10
2017-12-29T01:46:27.278Z,72.00
2017-12-29T01:48:54.751Z,72.20
2017-12-29T01:51:22.184Z,72.10
2017-12-29T01:53:50.030Z,72.00
2017-12-29T01:56:17.556Z,72.10
2017-12-29T01:58:44.988Z,72.00
2017-12-29T02:01:12.441Z,72.00
2017-12-29T02:03:39.872Z,71.90
2017-12-29T02:06:07.326Z,71.90
2017-12-29T02:08:34.758Z,72.00
2017-12-29T02:11:02.184Z,72.10
2017-12-29T02:13:30.084Z,72.30
2017-12-29T02:15:57.683Z,72.30
2017-12-29T02:18:25.121Z,72.20
2017-12-29T02:20:52.567Z,72.10
2017-12-29T02:23:20.003Z,72.00
2017-12-29T02:25:47.932Z,72.00
2017-12-29T02:28:15.375Z,72.00
2017-12-29T02:30:42.822Z,72.10
2017-12-29T02:33:10.278Z,72.20
2017-12-29T02:35:37.776Z,72.20
2017-12-29T02:38:05.204Z,72.30
2017-12-29T02:40:32.657Z,72.20
2017-12-29T02:43:00.074Z,72.00
2017-12-29T02:45:27.515Z,71.90
2017-12-29T02:47:54.957Z,72.10
2017-12-29T02:50:22.415Z,72.10
2017-12-29T02:52:49.835Z,72.40
2017-12-29T02:55:17.684Z,72.50
2017-12-29T02:57:45.139Z,72.50
2017-12-29T03:00:12.579Z,72.70
2017-12-29T03:02:40.008Z,73.00
2017-12-29T03:05:07.928Z,73.00
2017-12-29T03:07:35.371Z,73.00
2017-12-29T03:10:02.843Z,73.10
2017-12-29T03:12:30.293Z,72.90
2017-12-29T03:14:57.753Z,72.80
2017-12-29T03:17:25.195Z,73.00
2017-12-29T03:19:52.619Z,73.10
2017-12-29T03:22:20.096Z,73.40
2017-12-29T03:24:48.307Z,73.70
2017-12-29T03:27:15.783Z,73.70
2017-12-29T03:29:43.212Z,73.80
2017-12-29T03:32:10.656Z,73.50
2017-12-29T03:34:38.101Z,73.40
2017-12-29T03:37:05.631Z,73.50
2017-12-29T03:39:33.060Z,73.30
2017-12-29T03:42:00.523Z,73.40
2017-12-29T03:44:28.020Z,73.30
2017-12-29T03:46:55.466Z,73.20
2017-12-29T03:49:22.982Z,73.10
2017-12-29T03:51:50.500Z,73.10
2017-12-29T03:54:17.975Z,72.90
2017-12-29T03:56:45.458Z,72.70
2017-12-29T03:59:13.012Z,72.70
2017-12-29T04:01:40.755Z,72.60
2017-12-29T04:04:08.231Z,72.50
2017-12-29T04:06:35.810Z,72.30
2017-12-29T04:09:03.251Z,72.30
2017-12-29T04:11:30.700Z,72.40
2017-12-29T04:13:58.494Z,72.30
2017-12-29T04:16:25.953Z,72.40
2017-12-29T04:18:53.391Z,72.40
2017-12-29T04:21:20.864Z,71.90
2017-12-29T04:23:48.355Z,71.80
2017-12-29T04:26:15.820Z,72.00
2017-12-29T04:28:44.959Z,72.00
2017-12-29T04:31:12.783Z,71.80
2017-12-29T04:33:40.241Z,71.80
2017-12-29T04:36:07.790Z,71.70
2017-12-29T04:38:35.700Z,71.80
2017-12-29T04:41:03.633Z,72.00
2017-12-29T04:43:31.098Z,72.00
2017-12-29T04:45:58.521Z,72.30
2017-12-29T04:48:25.970Z,72.40
2017-12-29T04:50:53.471Z,72.10
2017-12-29T04:53:20.909Z,72.40
2017-12-29T04:55:48.750Z,72.80
2017-12-29T04:58:16.669Z,72.90
2017-12-29T05:00:44.106Z,72.90
2017-12-29T05:03:11.540Z,73.10
2017-12-29T05:05:38.964Z,72.80
2017-12-29T05:08:06.402Z,72.50
2017-12-29T05:10:33.851Z,72.50
2017-12-29T05:13:01.366Z,72.40
2017-12-29T05:15:28.802Z,72.40
2017-12-29T05:17:56.230Z,72.20
2017-12-29T05:20:23.684Z,72.20
2017-12-29T05:22:51.534Z,72.20
2017-12-29T05:25:18.995Z,72.20
2017-12-29T05:27:46.446Z,72.40
2017-12-29T05:30:13.889Z,72.20
2017-12-29T05:32:41.333Z,72.00
2017-12-29T05:35:08.768Z,72.00
2017-12-29T05:37:36.671Z,71.70
2017-12-29T05:40:04.107Z,71.70
2017-12-29T05:42:31.712Z,71.70
2017-12-29T05:44:59.178Z,71.50
2017-12-29T05:47:26.642Z,71.00
2017-12-29T05:49:54.083Z,70.70
2017-12-29T05:52:21.609Z,70.50
2017-12-29T05:54:49.438Z,70.10
2017-12-29T05:57:16.883Z,70.10
2017-12-29T05:59:44.326Z,70.10
2017-12-29T06:02:11.809Z,70.20
2017-12-29T06:04:39.263Z,70.20
2017-12-29T06:07:06.710Z,70.20
2017-12-29T06:09:34.176Z,70.30
2017-12-29T06:12:01.640Z,70.40
2017-12-29T06:14:29.718Z,70.50
2017-12-29T06:16:57.140Z,70.60
2017-12-29T06:19:25.069Z,70.60
2017-12-29T06:21:52.507Z,70.60
2017-12-29T06:24:19.985Z,70.90
2017-12-29T06:26:47.446Z,71.20
2017-12-29T06:29:15.006Z,71.40
2017-12-29T06:31:42.474Z,71.40
2017-12-29T06:34:09.883Z,71.60
2017-12-29T06:36:37.765Z,71.80
2017-12-29T06:39:05.667Z,71.80
2017-12-29T06:41:33.103Z,71.80
2017-12-29T06:44:00.626Z,71.70
2017-12-29T06:46:28.061Z,71.70
2017-12-29T06:48:55.511Z,71.50
2017-12-29T06:51:22.940Z,71.30
2017-12-29T06:53:50.795Z,71.30
2017-12-29T06:56:18.329Z,71.30
2017-12-29T06:58:45.747Z,71.10
2017-12-29T07:01:13.203Z,71.20
2017-12-29T07:03:41.129Z,71.30
2017-12-29T07:06:08.569Z,71.20
2017-12-29T07:08:36.002Z,71.10
2017-12-29T07:11:03.442Z,71.20
2017-12-29T07:13:31.311Z,71.10
2017-12-29T07:15:59.231Z,71.20
2017-12-29T07:18:27.523Z,71.20
2017-12-29T07:20:54.959Z,71.10
2017-12-29T07:23:22.454Z,71.20
2017-12-29T07:25:49.903Z,71.10
2017-12-29T07:28:17.367Z,71.20
2017-12-29T07:30:44.804Z,71.30
2017-12-29T07:33:12.231Z,71.30
2017-12-29T07:35:40.076Z,71.50
2017-12-29T07:38:07.527Z,71.50
2017-12-29T07:40:35.969Z,71.30
2017-12-29T07:43:03.784Z,71.40
2017-12-29T07:45:31.244Z,71.40
2017-12-29T07:47:58.655Z,71.30
2017-12-29T07:50:26.492Z,71.50
2017-12-29T07:52:54.040Z,71.50
2017-12-29T07:55:21.491Z,71.60
2017-12-29T07:57:48.918Z,71.80
2017-12-29T08:00:16.751Z,71.90
2017-12-29T08:02:44.185Z,71.90
2017-12-29T08:05:11.613Z,71.80
2017-12-29T08:07:39.102Z,71.80
2017-12-29T08:10:06.569Z,71.90
2017-12-29T08:12:33.998Z,71.60
2017-12-29T08:15:01.449Z,72.10
2017-12-29T08:17:29.376Z,72.10
2017-12-29T08:19:56.811Z,72.10
2017-12-29T08:22:24.329Z,72.00
2017-12-29T08:24:51.863Z,71.90
2017-12-29T08:27:19.303Z,72.10
2017-12-29T08:29:46.752Z,71.80
2017-12-29T08:32:14.279Z,71.60
2017-12-29T08:34:41.692Z,71.70
2017-12-29T08:37:09.157Z,71.70
2017-12-29T08:39:36.626Z,71.70
2017-12-29T08:42:04.071Z,71.60
2017-12-29T08:44:31.506Z,71.60
2017-12-29T08:46:59.416Z,71.50
2017-12-29T08:49:26.902Z,71.40
2017-12-29T08:51:54.337Z,71.50
2017-12-29T08:54:21.793Z,71.30
2017-12-29T08:56:49.269Z,71.00
2017-12-29T08:59:16.727Z,70.80
2017-12-29T09:01:44.178Z,71.10
2017-12-29T09:04:11.647Z,71.10
2017-12-29T09:06:39.095Z,70.70
2017-12-29T09:09:06.602Z,70.50
2017-12-29T09:11:34.052Z,70.60
2017-12-29T09:14:01.472Z,70.50
2017-12-29T09:16:28.949Z,70.30
2017-12-29T09:18:56.751Z,70.70
2017-12-29T09:21:24.171Z,70.40
2017-12-29T09:23:51.607Z,70.00
2017-12-29T09:26:19.433Z,70.00
2017-12-29T09:28:46.876Z,69.90
2017-12-29T09:31:14.335Z,69.50
2017-12-29T09:33:41.767Z,69.80
2017-12-29T09:36:09.689Z,70.10
2017-12-29T09:38:37.127Z,70.10
2017-12-29T09:41:04.548Z,69.50
2017-12-29T09:43:32.413Z,69.10
2017-12-29T09:46:00.264Z,68.40
2017-12-29T09:48:28.492Z,68.40
2017-12-29T09:50:56.003Z,67.90
2017-12-29T09:53:23.469Z,67.90
2017-12-29T09:55:50.912Z,68.10
2017-12-29T09:58:18.359Z,68.00
2017-12-29T10:00:45.783Z,67.60
2017-12-29T10:03:13.693Z,67.50
2017-12-29T10:05:41.213Z,67.50
2017-12-29T10:08:09.101Z,68.20
2017-12-29T10:10:36.611Z,68.20
2017-12-29T10:13:04.027Z,68.20
2017-12-29T10:15:31.457Z,68.10
2017-12-29T10:17:58.982Z,68.00
2017-12-29T10:20:26.429Z,67.90
2017-12-29T10:22:53.870Z,67.80
2017-12-29T10:25:21.895Z,67.80
2017-12-29T10:27:49.368Z,67.80
2017-12-29T10:30:16.963Z,67.90
2017-12-29T10:32:44.791Z,68.20
2017-12-29T10:35:12.243Z,68.20
2017-12-29T10:37:39.675Z,68.20
2017-12-29T10:40:07.156Z,68.60
2017-12-29T10:42:34.674Z,68.50
2017-12-29T10:45:02.199Z,68.40
2017-12-29T10:47:29.752Z,68.00
2017-12-29T10:49:57.180Z,68.40
2017-12-29T10:52:24.686Z,68.80
2017-12-29T10:54:52.245Z,68.80
2017-12-29T10:57:19.826Z,68.90
2017-12-29T10:59:47.264Z,69.20
2017-12-29T11:02:14.743Z,69.10
2017-12-29T11:04:42.159Z,68.90
2017-12-29T11:07:09.676Z,69.30
2017-12-29T11:09:37.164Z,69.50
2017-12-29T11:12:04.687Z,69.50
2017-12-29T11:14:32.423Z,69.50
2017-12-29T11:17:00.507Z,69.60
2017-12-29T11:19:27.972Z,69.30
2017-12-29T11:21:55.853Z,69.40
2017-12-29T11:24:23.309Z,69.40
2017-12-29T11:26:50.751Z,69.50
2017-12-29T11:29:18.262Z,69.40
2017-12-29T11:31:45.695Z,69.60
2017-12-29T11:34:13.159Z,69.50
2017-12-29T11:36:40.605Z,69.60
2017-12-29T11:39:08.114Z,69.60
2017-12-29T11:41:35.532Z,69.80
2017-12-29T11:44:03.920Z,69.70
2017-12-29T11:46:31.391Z,69.70
2017-12-29T11:48:58.848Z,69.80
2017-12-29T11:51:26.296Z,69.90
2017-12-29T11:53:53.772Z,70.10
2017-12-29T11:56:21.213Z,70.10
2017-12-29T11:58:48.648Z,69.80
2017-12-29T12:01:16.553Z,69.40
2017-12-29T12:03:43.982Z,69.40
2017-12-29T12:06:11.803Z,68.90
2017-12-29T12:08:39.228Z,68.90
2017-12-29T12:11:06.691Z,68.70
2017-12-29T12:13:34.500Z,68.60
2017-12-29T12:16:02.059Z,68.60
2017-12-29T12:18:29.502Z,68.70
2017-12-29T12:20:56.965Z,68.50
2017-12-29T12:23:24.376Z,68.60
2017-12-29T12:25:52.226Z,67.80
2017-12-29T12:28:19.683Z,67.80
2017-12-29T12:30:47.257Z,68.20
2017-12-29T12:33:14.682Z,67.80
2017-12-29T12:35:42.155Z,67.70
2017-12-29T12:38:09.723Z,67.80
2017-12-29T12:40:37.189Z,67.80
2017-12-29T12:43:05.574Z,68.00
2017-12-29T12:45:33.022Z,67.80
2017-12-29T12:48:00.455Z,67.90
2017-12-29T12:50:27.967Z,67.90
2017-12-29T12:52:55.430Z,67.80
2017-12-29T12:55:22.869Z,67.70
2017-12-29T12:57:50.313Z,67.60
2017-12-29T13:00:17.748Z,68.00
2017-12-29T13:02:45.603Z,68.10
2017-12-29T13:05:13.065Z,68.10
2017-12-29T13:07:40.587Z,68.10
2017-12-29T13:10:08.044Z,68.20
2017-12-29T13:12:35.476Z,68.20
2017-12-29T13:15:03.325Z,68.00
2017-12-29T13:17:30.763Z,68.00
2017-12-29T13:19:58.196Z,67.80
2017-12-29T13:22:25.638Z,67.60
2017-12-29T13:24:53.463Z,67.90
2017-12-29T13:27:20.904Z,68.00
2017-12-29T13:29:48.371Z,68.00
2017-12-29T13:32:15.806Z,66.90
2017-12-29T13:34:43.292Z,67.10
2017-12-29T13:37:10.732Z,66.40
2017-12-29T13:39:38.216Z,66.60
2017-12-29T13:42:05.646Z,66.90
2017-12-29T13:44:33.128Z,66.60
2017-12-29T13:47:00.564Z,66.50
2017-12-29T13:49:28.004Z,66.10
2017-12-29T13:51:55.936Z,65.80
2017-12-29T13:54:23.380Z,65.80
2017-12-29T13:56:51.797Z,65.80
2017-12-29T13:59:19.327Z,65.90
2017-12-29T14:01:46.776Z,65.90
2017-12-29T14:04:14.238Z,65.80
2017-12-29T14:06:41.661Z,65.70
2017-12-29T14:09:09.576Z,65.70
2017-12-29T14:11:37.026Z,65.70
2017-12-29T14:14:05.322Z,65.90
2017-12-29T14:16:32.780Z,65.50
2017-12-29T14:19:00.297Z,65.70
2017-12-29T14:21:27.743Z,65.60
2017-12-29T14:23:55.206Z,66.00
2017-12-29T14:26:22.754Z,65.70
2017-12-29T14:28:50.218Z,65.50
2017-12-29T14:31:17.664Z,65.70
2017-12-29T14:33:45.110Z,65.80
2017-12-29T14:36:12.576Z,65.80
2017-12-29T14:38:40.058Z,65.80
2017-12-29T14:41:07.511Z,66.00
2017-12-29T14:43:34.939Z,66.20
2017-12-29T14:46:02.586Z,66.60
2017-12-29T14:48:30.446Z,66.60
2017-12-29T14:50:57.894Z,66.60
2017-12-29T14:53:25.342Z,66.60
2017-12-29T14:55:52.791Z,66.60
2017-12-29T14:58:20.215Z,66.80
2017-12-29T15:00:48.135Z,66.80
2017-12-29T15:03:15.595Z,66.80
2017-12-29T15:05:43.041Z,66.90
2017-12-29T15:08:10.519Z,67.10
2017-12-29T15:10:37.989Z,66.70
2017-12-29T15:13:05.430Z,66.80
2017-12-29T15:15:32.837Z,66.90
2017-12-29T15:18:00.350Z,66.90
2017-12-29T15:20:27.828Z,66.70
2017-12-29T15:22:55.277Z,66.90
2017-12-29T15:25:22.702Z,66.90
2017-12-29T15:27:51.365Z,69.90
2017-12-29T15:30:18.859Z,66.90
2017-12-29T15:32:46.671Z,67.20
2017-12-29T15:35:14.098Z,67.20
2017-12-29T15:37:41.524Z,67.60
2017-12-29T15:40:08.956Z,67.90
2017-12-29T15:42:36.406Z,68.80
2017-12-29T15:45:03.868Z,68.90
2017-12-29T15:47:31.286Z,69.70
2017-12-29T15:49:59.192Z,70.50
2017-12-29T15:52:26.645Z,70.50
2017-12-29T15:54:54.140Z,71.10
2017-12-29T15:57:21.573Z,71.60
2017-12-29T15:59:49.064Z,72.10
2017-12-29T16:02:16.481Z,72.50
2017-12-29T16:04:43.931Z,72.80
2017-12-29T16:07:11.773Z,73.70
2017-12-29T16:09:39.206Z,73.70
2017-12-29T16:12:06.688Z,74.00
2017-12-29T16:14:34.126Z,74.50
2017-12-29T16:17:01.579Z,75.00
2017-12-29T16:19:29.371Z,75.40
2017-12-29T16:21:56.814Z,75.70
2017-12-29T16:24:24.262Z,76.00
2017-12-29T16:26:51.751Z,76.10
2017-12-29T16:29:19.211Z,76.20
2017-12-29T16:31:46.649Z,76.40
2017-12-29T16:34:14.076Z,76.70
2017-12-29T16:36:41.925Z,77.10
2017-12-29T16:39:09.520Z,77.10
2017-12-29T16:41:36.966Z,77.40
2017-12-29T16:44:04.486Z,77.40
2017-12-29T16:46:32.731Z,77.50
2017-12-29T16:49:00.196Z,77.80
2017-12-29T16:51:28.041Z,77.80
2017-12-29T16:53:55.987Z,77.90
2017-12-29T16:56:23.423Z,77.90
2017-12-29T16:58:50.900Z,78.20
2017-12-29T17:01:18.346Z,78.30
2017-12-29T17:03:45.790Z,78.50
2017-12-29T17:06:13.218Z,78.80
2017-12-29T17:08:41.291Z,79.10
2017-12-29T17:11:08.730Z,79.20
2017-12-29T17:13:36.179Z,79.50
2017-12-29T17:16:03.610Z,79.70
2017-12-29T17:18:31.035Z,79.90
2017-12-29T17:20:58.476Z,80.10
2017-12-29T17:23:25.905Z,80.30
2017-12-29T17:25:53.379Z,80.30
2017-12-29T17:28:20.829Z,80.30
2017-12-29T17:30:48.263Z,80.20
2017-12-29T17:33:15.787Z,80.20
2017-12-29T17:35:43.729Z,80.50
2017-12-29T17:38:11.159Z,80.40
2017-12-29T17:40:38.995Z,80.30
2017-12-29T17:43:06.549Z,80.30
2017-12-29T17:45:34.004Z,80.50
2017-12-29T17:48:01.446Z,80.60
2017-12-29T17:50:28.937Z,80.60
2017-12-29T17:52:56.413Z,80.60
2017-12-29T17:55:23.869Z,80.80
2017-12-29T17:57:51.306Z,81.00
2017-12-29T18:00:18.765Z,80.70
2017-12-29T18:02:46.234Z,80.50
2017-12-29T18:05:13.667Z,80.60
2017-12-29T18:07:41.117Z,80.50
2017-12-29T18:10:08.610Z,80.40
2017-12-29T18:12:36.024Z,80.40
2017-12-29T18:15:03.850Z,80.10
2017-12-29T18:17:31.332Z,80.10
2017-12-29T18:19:58.823Z,80.00
2017-12-29T18:22:26.644Z,80.20
2017-12-29T18:24:54.085Z,80.10
2017-12-29T18:27:21.533Z,80.00
2017-12-29T18:29:48.946Z,80.20
2017-12-29T18:32:16.486Z,80.20
2017-12-29T18:34:43.909Z,80.10
2017-12-29T18:37:11.338Z,80.10
2017-12-29T18:39:39.209Z,80.00
2017-12-29T18:42:07.274Z,80.00
2017-12-29T18:44:34.834Z,80.10
2017-12-29T18:47:02.769Z,80.30
2017-12-29T18:49:30.199Z,80.10
2017-12-29T18:51:58.100Z,80.20
2017-12-29T18:54:25.560Z,80.20
2017-12-29T18:56:53.025Z,80.20
2017-12-29T18:59:20.506Z,80.20
2017-12-29T19:01:47.949Z,80.20
2017-12-29T19:04:16.557Z,80.50
2017-12-29T19:06:44.517Z,80.30
2017-12-29T19:09:12.174Z,80.30
2017-12-29T19:11:39.656Z,80.50
2017-12-29T19:14:07.124Z,80.50
2017-12-29T19:16:34.556Z,80.60
2017-12-29T19:19:02.004Z,80.50
2017-12-29T19:21:29.875Z,80.30
2017-12-29T19:23:57.316Z,80.30
2017-12-29T19:26:24.854Z,80.30
2017-12-29T19:28:52.434Z,80.10
2017-12-29T19:31:19.874Z,80.20
2017-12-29T19:33:47.341Z,80.10
2017-12-29T19:36:14.789Z,80.20
2017-12-29T19:38:42.252Z,80.20
2017-12-29T19:41:09.725Z,80.20
2017-12-29T19:43:37.157Z,80.50
2017-12-29T19:46:04.615Z,80.40
2017-12-29T19:48:32.059Z,80.30
2017-12-29T19:50:59.562Z,80.20
2017-12-29T19:53:27.015Z,80.30
2017-12-29T19:55:54.447Z,80.10
2017-12-29T19:58:22.274Z,79.70
2017-12-29T20:00:49.736Z,79.70
2017-12-29T20:03:17.166Z,79.80
2017-12-29T20:05:44.726Z,79.60
2017-12-29T20:08:12.300Z,79.60
2017-12-29T20:10:39.724Z,79.50
2017-12-29T20:13:07.168Z,79.60
2017-12-29T20:15:35.177Z,79.50
2017-12-29T20:18:03.151Z,79.50
2017-12-29T20:20:30.661Z,79.50
2017-12-29T20:22:58.197Z,79.60
2017-12-29T20:25:25.689Z,79.60
2017-12-29T20:27:53.289Z,79.60
2017-12-29T20:30:21.187Z,79.60
2017-12-29T20:32:48.634Z,79.50
2017-12-29T20:35:16.105Z,79.70
2017-12-29T20:37:43.539Z,79.70
2017-12-29T20:40:11.472Z,79.50
2017-12-29T20:42:38.899Z,79.50
2017-12-29T20:45:06.344Z,79.60
2017-12-29T20:47:33.767Z,79.50
2017-12-29T20:50:01.219Z,79.40
2017-12-29T20:52:28.677Z,79.40
2017-12-29T20:54:56.140Z,79.30
2017-12-29T20:57:23.600Z,79.30
2017-12-29T20:59:51.098Z,79.30
2017-12-29T21:02:18.550Z,79.30
2017-12-29T21:04:45.971Z,79.50
2017-12-29T21:07:13.415Z,80.00
2017-12-29T21:09:40.920Z,80.10
2017-12-29T21:12:08.367Z,80.30
2017-12-29T21:14:35.817Z,80.40
2017-12-29T21:17:03.238Z,80.40
2017-12-29T21:19:30.673Z,80.40
2017-12-29T21:21:58.105Z,80.60
2017-12-29T21:24:25.578Z,80.70
2017-12-29T21:26:53.194Z,80.90
2017-12-29T21:29:20.880Z,80.90
2017-12-29T21:31:48.552Z,80.80
2017-12-29T21:34:16.409Z,81.00
2017-12-29T21:36:44.383Z,80.80
2017-12-29T21:39:12.283Z,80.80
2017-12-29T21:41:40.556Z,80.70
2017-12-29T21:44:08.189Z,80.50
2017-12-29T21:46:36.182Z,80.50
2017-12-29T21:49:04.181Z,80.40
2017-12-29T21:51:32.139Z,80.20
2017-12-29T21:53:59.596Z,80.20
2017-12-29T21:56:27.035Z,80.10
2017-12-29T21:58:54.474Z,80.10
2017-12-29T22:01:22.325Z,80.10
2017-12-29T22:03:49.773Z,80.10
2017-12-29T22:06:17.340Z,80.00
2017-12-29T22:08:44.899Z,80.00
2017-12-29T22:11:12.331Z,80.00
2017-12-29T22:13:39.787Z,80.00
2017-12-29T22:16:07.229Z,80.10
2017-12-29T22:18:35.076Z,80.00
2017-12-29T22:21:02.595Z,80.00
2017-12-29T22:23:30.036Z,79.90
2017-12-29T22:25:57.471Z,79.90
2017-12-29T22:28:25.302Z,80.00
2017-12-29T22:30:52.748Z,80.00
2017-12-29T22:33:20.322Z,79.80
2017-12-29T22:35:49.670Z,79.60
2017-12-29T22:38:17.532Z,79.20
2017-12-29T22:40:44.974Z,79.30
2017-12-29T22:43:12.399Z,79.20
2017-12-29T22:45:39.881Z,79.30
2017-12-29T22:48:07.342Z,79.20
2017-12-29T22:50:34.802Z,79.10
2017-12-29T22:53:02.238Z,79.10
2017-12-29T22:55:29.698Z,79.00
2017-12-29T22:57:57.691Z,79.10
2017-12-29T23:00:25.139Z,79.20
2017-12-29T23:02:52.634Z,79.30
2017-12-29T23:05:20.085Z,79.60
2017-12-29T23:07:47.641Z,79.70
2017-12-29T23:10:15.171Z,79.90
2017-12-29T23:12:42.651Z,79.90
2017-12-29T23:15:10.089Z,79.90
2017-12-29T23:17:37.952Z,79.90
2017-12-29T23:20:05.390Z,79.90
2017-12-29T23:22:32.858Z,80.10
2017-12-29T23:25:00.283Z,80.10
2017-12-29T23:27:27.744Z,80.10
2017-12-29T23:29:55.220Z,79.80
2017-12-29T23:32:22.686Z,79.80
2017-12-29T23:34:50.137Z,79.60
2017-12-29T23:37:17.593Z,79.50
2017-12-29T23:39:45.043Z,79.50
2017-12-29T23:42:12.497Z,79.40
2017-12-29T23:44:39.963Z,79.40
2017-12-29T23:47:07.371Z,79.70
2017-12-29T23:49:34.854Z,80.00
2017-12-29T23:52:03.093Z,79.70
2017-12-29T23:54:30.567Z,79.70
2017-12-29T23:56:58.009Z,79.70
2017-12-29T23:59:25.455Z,80.10
